createdAt,value
2022-12-01T00:00:05.421Z,17.05
2022-12-01T00:02:33.424Z,19.88
2022-12-01T00:05:02.723Z,18.25
2022-12-01T00:07:30.743Z,19.88
2022-12-01T00:10:18.370Z,18.17
2022-12-01T00:12:46.479Z,19.25
2022-12-01T00:15:14.432Z,17.73
2022-12-01T00:17:47.946Z,17.30
2022-12-01T00:20:16.768Z,19.70
2022-12-01T00:22:48.741Z,18.27
2022-12-01T00:25:18.454Z,21.88
2022-12-01T00:27:52.089Z,19.02
2022-12-01T00:30:22.788Z,20.15
2022-12-01T00:32:50.930Z,19.02
2022-12-01T00:35:19.146Z,20.92
2022-12-01T00:37:48.507Z,21.50
2022-12-01T00:40:16.625Z,19.98
2022-12-01T00:42:45.160Z,20.02
2022-12-01T00:45:14.625Z,20.50
2022-12-01T00:47:44.898Z,20.45
2022-12-01T00:50:13.056Z,20.63
2022-12-01T00:55:08.897Z,20.73
2022-12-01T00:57:37.323Z,21.10
2022-12-01T01:00:06.249Z,21.15
2022-12-01T01:02:34.968Z,19.42
2022-12-01T01:05:03.237Z,18.23
2022-12-01T01:09:59.051Z,19.05
2022-12-01T01:12:28.283Z,18.15
2022-12-01T01:14:57.244Z,19.98
2022-12-01T01:17:25.337Z,20.58
2022-12-01T01:24:52.850Z,20.88
2022-12-01T01:27:20.795Z,18.65
2022-12-01T01:29:49.088Z,20.00
2022-12-01T01:32:17.996Z,19.38
2022-12-01T01:37:13.420Z,16.95
2022-12-01T01:39:43.517Z,18.88
2022-12-01T01:42:15.275Z,19.35
2022-12-01T01:44:51.883Z,18.40
2022-12-01T01:47:52.204Z,20.75
2022-12-01T01:50:22.727Z,18.05
2022-12-01T01:52:58.069Z,18.38
2022-12-01T01:55:26.626Z,19.92
2022-12-01T01:57:54.719Z,18.25
2022-12-01T02:00:23.741Z,18.60
2022-12-01T02:05:24.399Z,15.90
2022-12-01T02:07:55.360Z,16.77
2022-12-01T02:10:46.844Z,19.48
2022-12-01T02:13:39.392Z,21.23
2022-12-01T02:16:31.572Z,21.13
2022-12-01T02:19:44.497Z,21.08
2022-12-01T02:22:12.465Z,21.80
2022-12-01T02:24:57.233Z,22.15
2022-12-01T02:28:02.707Z,20.15
2022-12-01T02:30:54.880Z,21.70
2022-12-01T02:33:29.778Z,22.98
2022-12-01T02:36:26.655Z,22.55
2022-12-01T02:39:08.015Z,25.73
2022-12-01T02:41:36.025Z,23.50
2022-12-01T02:44:14.637Z,22.75
2022-12-01T02:46:51.592Z,22.55
2022-12-01T02:49:24.265Z,24.85
2022-12-01T02:51:54.797Z,22.73
2022-12-01T02:54:23.273Z,25.17
2022-12-01T02:56:54.086Z,25.17
2022-12-01T02:59:21.973Z,24.25
2022-12-01T03:02:24.573Z,26.30
2022-12-01T03:05:18.815Z,25.63
2022-12-01T03:08:05.725Z,24.65
2022-12-01T03:10:45.788Z,24.93
2022-12-01T03:13:37.777Z,23.33
2022-12-01T03:16:13.727Z,23.25
2022-12-01T03:19:22.794Z,23.02
2022-12-01T03:21:55.678Z,22.48
2022-12-01T03:24:27.818Z,23.70
2022-12-01T03:26:58.321Z,23.63
2022-12-01T03:29:49.855Z,24.20
2022-12-01T03:32:26.704Z,22.83
2022-12-01T03:35:05.962Z,22.50
2022-12-01T03:37:56.241Z,23.35
2022-12-01T03:40:29.116Z,22.27
2022-12-01T03:43:04.720Z,20.10
2022-12-01T03:45:51.154Z,21.27
2022-12-01T03:48:20.624Z,21.85
2022-12-01T03:51:23.441Z,19.95
2022-12-01T03:54:07.204Z,21.35
2022-12-01T03:56:52.889Z,22.48
2022-12-01T03:59:22.702Z,23.02
2022-12-01T04:01:51.895Z,22.90
2022-12-01T04:04:20.911Z,22.42
2022-12-01T04:06:50.748Z,23.20
2022-12-01T04:09:18.813Z,24.58
2022-12-01T04:12:05.251Z,25.52
2022-12-01T04:14:33.315Z,24.98
2022-12-01T04:17:01.391Z,24.58
2022-12-01T04:21:58.148Z,24.35
2022-12-01T04:24:26.199Z,24.70
2022-12-01T04:26:55.058Z,24.08
2022-12-01T04:29:22.806Z,26.15
2022-12-01T04:31:55.008Z,22.17
2022-12-01T04:34:25.170Z,24.55
2022-12-01T04:36:53.262Z,23.15
2022-12-01T04:39:22.012Z,22.83
2022-12-01T04:41:49.953Z,23.08
2022-12-01T04:46:48.576Z,24.02
2022-12-01T04:49:16.807Z,25.50
2022-12-01T04:51:45.346Z,26.08
2022-12-01T04:56:42.254Z,26.98
2022-12-01T04:59:12.935Z,26.00
2022-12-01T05:01:41.255Z,28.13
2022-12-01T05:04:13.283Z,25.95
2022-12-01T05:06:41.410Z,24.75
2022-12-01T05:09:16.881Z,24.77
2022-12-01T05:11:46.098Z,24.58
2022-12-01T05:14:14.343Z,22.55
2022-12-01T05:16:43.593Z,21.52
2022-12-01T05:19:30.270Z,22.83
2022-12-01T05:21:59.204Z,22.15
2022-12-01T05:24:30.815Z,20.55
2022-12-01T05:27:00.646Z,23.48
2022-12-01T05:29:28.756Z,23.98
2022-12-01T05:31:56.456Z,24.45
2022-12-01T05:34:26.125Z,24.08
2022-12-01T05:36:55.749Z,22.10
2022-12-01T05:39:24.618Z,21.48
2022-12-01T05:41:52.800Z,21.42
2022-12-01T05:44:21.221Z,20.27
2022-12-01T05:46:49.371Z,20.85
2022-12-01T05:49:17.837Z,22.55
2022-12-01T05:51:48.198Z,22.63
2022-12-01T05:54:18.627Z,22.05
2022-12-01T05:56:47.412Z,20.60
2022-12-01T05:59:16.513Z,22.15
2022-12-01T06:01:48.789Z,22.48
2022-12-01T06:04:17.123Z,22.10
2022-12-01T06:06:46.113Z,25.15
2022-12-01T06:09:14.186Z,22.55
2022-12-01T06:11:43.283Z,23.98
2022-12-01T06:14:11.405Z,22.55
2022-12-01T06:16:41.305Z,21.45
2022-12-01T06:19:10.727Z,20.52
2022-12-01T06:21:38.991Z,22.70
2022-12-01T06:24:07.728Z,23.90
2022-12-01T06:26:36.925Z,20.85
2022-12-01T06:29:04.951Z,22.25
2022-12-01T06:31:33.519Z,20.83
2022-12-01T06:34:01.699Z,18.88
2022-12-01T06:36:30.031Z,20.05
2022-12-01T06:38:58.107Z,18.48
2022-12-01T06:41:26.060Z,19.48
2022-12-01T06:43:55.068Z,17.40
2022-12-01T06:46:23.140Z,19.17
2022-12-01T06:48:51.453Z,21.40
2022-12-01T06:51:20.362Z,19.45
2022-12-01T06:53:48.520Z,20.90
2022-12-01T06:56:17.886Z,21.08
2022-12-01T06:58:47.666Z,19.98
2022-12-01T07:01:17.092Z,19.17
2022-12-01T07:06:19.000Z,21.60
2022-12-01T07:08:47.103Z,19.08
2022-12-01T07:11:16.359Z,19.38
2022-12-01T07:13:49.843Z,20.27
2022-12-01T07:16:17.989Z,20.05
2022-12-01T07:21:16.533Z,15.88
2022-12-01T07:23:44.615Z,16.27
2022-12-01T07:28:41.745Z,16.40
2022-12-01T07:33:39.498Z,16.80
2022-12-01T07:41:05.355Z,16.67
2022-12-01T07:43:33.972Z,17.92
2022-12-01T07:46:08.936Z,18.10
2022-12-01T07:48:38.923Z,17.33
2022-12-01T07:51:15.696Z,16.73
2022-12-01T07:53:45.274Z,17.52
2022-12-01T07:56:15.764Z,17.15
2022-12-01T07:58:44.434Z,17.27
2022-12-01T08:01:15.008Z,17.58
2022-12-01T08:03:44.769Z,18.02
2022-12-01T08:06:13.061Z,20.38
2022-12-01T08:08:41.492Z,16.50
2022-12-01T08:11:14.726Z,16.42
2022-12-01T08:13:43.218Z,17.95
2022-12-01T08:16:13.983Z,17.20
2022-12-01T08:18:43.141Z,17.45
2022-12-01T08:21:14.141Z,18.15
2022-12-01T08:23:43.509Z,18.15
2022-12-01T08:26:17.792Z,17.58
2022-12-01T08:28:47.200Z,18.10
2022-12-01T08:31:21.756Z,18.90
2022-12-01T08:33:53.048Z,16.58
2022-12-01T08:36:23.366Z,16.65
2022-12-01T08:38:55.356Z,16.92
2022-12-01T08:41:27.047Z,15.43
2022-12-01T08:43:58.815Z,14.95
2022-12-01T08:46:34.283Z,16.77
2022-12-01T08:49:03.895Z,16.20
2022-12-01T08:51:31.932Z,17.23
2022-12-01T08:54:01.949Z,19.42
2022-12-01T08:56:34.459Z,29.23
2022-12-01T08:59:02.684Z,19.15
2022-12-01T09:01:30.867Z,19.98
2022-12-01T09:04:08.811Z,18.98
2022-12-01T09:06:41.181Z,18.95
2022-12-01T09:09:17.054Z,19.80
2022-12-01T09:11:46.225Z,19.40
2022-12-01T09:14:16.464Z,16.48
2022-12-01T09:16:45.684Z,17.50
2022-12-01T09:19:19.208Z,16.90
2022-12-01T09:21:53.088Z,16.30
2022-12-01T09:24:20.813Z,16.30
2022-12-01T09:26:49.792Z,16.65
2022-12-01T09:29:18.116Z,15.95
2022-12-01T09:31:46.122Z,16.17
2022-12-01T09:36:43.183Z,17.42
2022-12-01T09:39:14.288Z,19.88
2022-12-01T09:42:16.606Z,17.13
2022-12-01T09:44:50.702Z,17.27
2022-12-01T09:47:46.957Z,18.73
2022-12-01T09:50:20.432Z,19.35
2022-12-01T09:52:50.772Z,19.17
2022-12-01T09:55:23.583Z,18.40
2022-12-01T09:57:54.741Z,18.25
2022-12-01T10:00:29.718Z,18.00
2022-12-01T10:02:57.897Z,21.42
2022-12-01T10:05:31.418Z,19.27
2022-12-01T10:08:06.910Z,19.92
2022-12-01T10:10:43.196Z,19.10
2022-12-01T10:13:22.551Z,17.92
2022-12-01T10:16:07.443Z,15.18
2022-12-01T10:18:48.304Z,17.42
2022-12-01T10:21:47.684Z,18.88
2022-12-01T10:24:24.443Z,18.77
2022-12-01T10:27:01.297Z,18.23
2022-12-01T10:29:29.559Z,18.33
2022-12-01T10:34:35.558Z,18.27
2022-12-01T10:37:03.936Z,20.13
2022-12-01T10:42:22.967Z,21.50
2022-12-01T10:44:53.627Z,18.95
2022-12-01T10:47:24.743Z,20.95
2022-12-01T10:49:53.262Z,20.23
2022-12-01T10:52:40.849Z,20.88
2022-12-01T10:55:23.927Z,21.55
2022-12-01T10:57:54.311Z,20.08
2022-12-01T11:00:57.543Z,18.88
2022-12-01T11:03:21.947Z,18.58
2022-12-01T11:05:59.846Z,19.90
2022-12-01T11:08:44.812Z,18.42
2022-12-01T11:11:40.748Z,19.70
2022-12-01T11:14:21.479Z,20.05
2022-12-01T11:16:54.110Z,20.98
2022-12-01T11:19:35.380Z,22.15
2022-12-01T11:22:14.112Z,18.23
2022-12-01T11:24:58.782Z,19.63
2022-12-01T11:27:29.416Z,21.40
2022-12-01T11:30:05.166Z,20.98
2022-12-01T11:32:39.373Z,19.92
2022-12-01T11:35:21.678Z,20.75
2022-12-01T11:38:29.325Z,20.35
2022-12-01T11:40:50.699Z,20.27
2022-12-01T11:43:36.714Z,19.23
2022-12-01T11:46:08.026Z,21.52
2022-12-01T11:48:39.695Z,20.23
2022-12-01T11:51:20.472Z,19.27
2022-12-01T11:53:49.709Z,19.90
2022-12-01T11:56:28.832Z,19.15
2022-12-01T11:59:01.690Z,18.92
2022-12-01T12:01:55.942Z,18.83
2022-12-01T12:04:34.882Z,18.42
2022-12-01T12:07:17.126Z,19.70
2022-12-01T12:10:03.277Z,20.30
2022-12-01T12:12:35.176Z,19.73
2022-12-01T12:15:41.925Z,19.27
2022-12-01T12:18:25.352Z,19.45
2022-12-01T12:21:31.232Z,20.60
2022-12-01T12:24:41.975Z,21.35
2022-12-01T12:27:23.503Z,22.17
2022-12-01T12:30:00.529Z,21.80
2022-12-01T12:32:49.743Z,21.10
2022-12-01T12:35:25.614Z,22.52
2022-12-01T12:38:21.118Z,22.88
2022-12-01T12:40:58.824Z,21.35
2022-12-01T12:43:54.363Z,22.45
2022-12-01T12:46:40.578Z,23.02
2022-12-01T12:49:21.041Z,23.17
2022-12-01T12:52:15.392Z,24.23
2022-12-01T12:55:18.044Z,23.50
2022-12-01T12:57:59.443Z,24.88
2022-12-01T13:00:29.134Z,24.98
2022-12-01T13:03:15.230Z,22.90
2022-12-01T13:05:51.680Z,22.65
2022-12-01T13:08:37.207Z,25.98
2022-12-01T13:11:17.835Z,25.15
2022-12-01T13:14:03.091Z,25.13
2022-12-01T13:16:43.524Z,25.38
2022-12-01T13:19:12.118Z,23.17
2022-12-01T13:21:45.330Z,23.75
2022-12-01T13:24:23.581Z,24.75
2022-12-01T13:27:13.322Z,23.08
2022-12-01T13:29:50.003Z,22.55
2022-12-01T13:32:38.254Z,24.92
2022-12-01T13:35:30.993Z,23.80
2022-12-01T13:38:44.656Z,24.02
2022-12-01T13:41:15.630Z,23.75
2022-12-01T13:44:30.664Z,24.70
2022-12-01T13:47:11.445Z,26.65
2022-12-01T13:49:44.450Z,24.95
2022-12-01T13:52:28.934Z,25.27
2022-12-01T13:55:24.585Z,22.77
2022-12-01T13:57:58.237Z,24.20
2022-12-01T14:00:28.863Z,22.50
2022-12-01T14:03:15.538Z,23.08
2022-12-01T14:05:47.618Z,25.27
2022-12-01T14:08:24.365Z,26.17
2022-12-01T14:11:03.888Z,23.52
2022-12-01T14:14:04.882Z,25.25
2022-12-01T14:16:52.908Z,25.75
2022-12-01T14:19:45.360Z,26.45
2022-12-01T14:22:34.336Z,24.88
2022-12-01T14:25:03.921Z,26.83
2022-12-01T14:27:42.695Z,27.52
2022-12-01T14:30:46.976Z,25.08
2022-12-01T14:33:39.975Z,22.63
2022-12-01T14:36:21.173Z,26.10
2022-12-01T14:39:07.828Z,25.08
2022-12-01T14:41:41.471Z,23.80
2022-12-01T14:44:34.095Z,24.55
2022-12-01T14:47:11.203Z,26.38
2022-12-01T14:52:18.857Z,26.13
2022-12-01T14:54:49.699Z,25.58
2022-12-01T14:57:22.693Z,25.45
2022-12-01T15:00:13.492Z,25.40
2022-12-01T15:02:45.906Z,23.63
2022-12-01T15:05:16.104Z,22.52
2022-12-01T15:07:47.029Z,24.85
2022-12-01T15:10:22.729Z,25.10
2022-12-01T15:12:52.026Z,26.60
2022-12-01T15:15:25.733Z,24.77
2022-12-01T15:17:55.910Z,25.63
2022-12-01T15:20:36.327Z,25.85
2022-12-01T15:23:17.904Z,28.10
2022-12-01T15:25:49.043Z,28.02
2022-12-01T15:30:55.227Z,28.70
2022-12-01T15:33:36.735Z,29.60
2022-12-01T15:36:06.218Z,26.63
2022-12-01T15:38:37.252Z,25.70
2022-12-01T15:41:29.996Z,26.08
2022-12-01T15:44:06.022Z,27.23
2022-12-01T15:46:34.813Z,25.15
2022-12-01T15:49:20.344Z,26.20
2022-12-01T15:51:50.564Z,26.92
2022-12-01T15:54:26.419Z,26.83
2022-12-01T15:56:56.729Z,24.50
2022-12-01T15:59:41.536Z,25.65
2022-12-01T16:02:25.361Z,26.13
2022-12-01T16:05:13.570Z,26.35
2022-12-01T16:08:11.949Z,26.90
2022-12-01T16:10:35.020Z,27.10
2022-12-01T16:13:40.552Z,25.38
2022-12-01T16:16:31.458Z,26.52
2022-12-01T16:19:02.491Z,27.38
2022-12-01T16:21:45.948Z,25.55
2022-12-01T16:24:35.994Z,27.05
2022-12-01T16:27:06.977Z,28.92
2022-12-01T16:29:48.643Z,32.28
2022-12-01T16:32:22.847Z,29.05
2022-12-01T16:34:53.499Z,27.75
2022-12-01T16:37:22.542Z,28.15
2022-12-01T16:39:53.378Z,28.90
2022-12-01T16:42:22.318Z,29.45
2022-12-01T16:44:51.317Z,29.38
2022-12-01T16:47:25.051Z,30.35
2022-12-01T16:49:54.008Z,30.15
2022-12-01T16:55:44.521Z,29.55
2022-12-01T16:58:13.102Z,30.08
2022-12-01T17:00:43.460Z,29.77
2022-12-01T17:03:13.268Z,32.20
2022-12-01T17:05:43.163Z,30.00
2022-12-01T17:08:12.329Z,29.35
2022-12-01T17:10:48.592Z,29.20
2022-12-01T17:13:19.138Z,29.45
2022-12-01T17:15:48.753Z,28.02
2022-12-01T17:18:19.218Z,27.92
2022-12-01T17:20:57.900Z,26.52
2022-12-01T17:23:28.016Z,29.85
2022-12-01T17:25:56.106Z,27.13
2022-12-01T17:30:52.861Z,27.02
2022-12-01T17:33:22.550Z,26.10
2022-12-01T17:35:51.156Z,26.48
2022-12-01T17:38:22.017Z,26.05
2022-12-01T17:41:07.589Z,27.73
2022-12-01T17:43:36.722Z,29.73
2022-12-01T17:46:06.940Z,27.77
2022-12-01T17:48:40.652Z,30.95
2022-12-01T17:51:09.206Z,31.75
2022-12-01T17:53:39.476Z,28.52
2022-12-01T17:56:09.029Z,30.10
2022-12-01T17:58:37.672Z,28.10
2022-12-01T18:01:06.843Z,29.85
2022-12-01T18:03:34.880Z,29.60
2022-12-01T18:06:04.733Z,27.45
2022-12-01T18:08:35.582Z,28.65
2022-12-01T18:11:12.820Z,28.52
2022-12-01T18:13:43.928Z,25.63
2022-12-01T18:16:15.729Z,27.38
2022-12-01T18:18:49.986Z,27.15
2022-12-01T18:21:29.109Z,24.83
2022-12-01T18:24:03.383Z,27.00
2022-12-01T18:26:39.504Z,26.58
2022-12-01T18:29:30.841Z,27.00
2022-12-01T18:32:04.408Z,24.52
2022-12-01T18:34:33.088Z,26.55
2022-12-01T18:37:03.936Z,27.77
2022-12-01T18:39:32.909Z,26.88
2022-12-01T18:42:03.615Z,27.25
2022-12-01T18:44:32.089Z,26.83
2022-12-01T18:47:02.923Z,25.55
2022-12-01T18:49:31.104Z,27.77
2022-12-01T18:52:00.421Z,26.23
2022-12-01T18:54:28.434Z,28.52
2022-12-01T18:57:01.824Z,30.48
2022-12-01T18:59:31.107Z,27.00
2022-12-01T19:01:59.114Z,28.35
2022-12-01T19:06:57.793Z,26.00
2022-12-01T19:09:25.454Z,29.25
2022-12-01T19:12:02.248Z,26.45
2022-12-01T19:14:30.397Z,27.90
2022-12-01T19:16:59.424Z,28.33
2022-12-01T19:19:27.263Z,26.52
2022-12-01T19:31:43.972Z,30.88
2022-12-01T19:34:17.802Z,26.63
2022-12-01T19:36:57.960Z,24.52
2022-12-01T19:42:15.986Z,26.67
2022-12-01T19:44:52.884Z,22.60
2022-12-01T19:47:23.027Z,27.13
2022-12-01T19:49:53.209Z,26.30
2022-12-01T19:52:20.818Z,26.58
2022-12-01T19:57:31.011Z,29.67
2022-12-01T19:59:59.248Z,27.05
2022-12-01T20:04:59.701Z,25.83
2022-12-01T20:07:27.918Z,25.52
2022-12-01T20:14:58.204Z,26.80
2022-12-01T20:17:27.579Z,26.42
2022-12-01T20:19:57.664Z,27.92
2022-12-01T20:22:26.236Z,24.30
2022-12-01T20:24:54.257Z,27.80
2022-12-01T20:27:22.114Z,28.67
2022-12-01T20:29:57.755Z,28.00
2022-12-01T20:32:29.013Z,25.33
2022-12-01T20:34:57.454Z,27.50
2022-12-01T20:37:26.570Z,25.50
2022-12-01T20:39:54.988Z,27.23
2022-12-01T20:42:24.824Z,26.77
2022-12-01T20:44:53.948Z,27.02
2022-12-01T20:47:23.374Z,26.35
2022-12-01T20:49:54.208Z,24.42
2022-12-01T20:52:27.019Z,26.40
2022-12-01T20:54:54.911Z,25.25
2022-12-01T20:57:25.673Z,34.15
2022-12-01T20:59:56.861Z,26.77
2022-12-01T21:02:26.272Z,27.35
2022-12-01T21:04:58.768Z,27.80
2022-12-01T21:07:27.223Z,27.15
2022-12-01T21:09:55.328Z,30.30
2022-12-01T21:12:43.164Z,29.40
2022-12-01T21:15:29.447Z,28.13
2022-12-01T21:18:04.263Z,27.48
2022-12-01T21:20:36.485Z,28.15
2022-12-01T21:23:18.090Z,28.17
2022-12-01T21:25:48.167Z,28.35
2022-12-01T21:28:22.828Z,29.55
2022-12-01T21:31:14.102Z,29.55
2022-12-01T21:33:43.566Z,28.50
2022-12-01T21:36:18.807Z,27.88
2022-12-01T21:39:01.346Z,26.85
2022-12-01T21:41:30.598Z,26.50
2022-12-01T21:44:13.927Z,29.73
2022-12-01T21:46:42.530Z,24.95
2022-12-01T21:49:35.479Z,27.00
2022-12-01T21:52:12.238Z,25.42
2022-12-01T21:54:40.320Z,26.70
2022-12-01T21:57:27.774Z,25.88
2022-12-01T22:00:36.361Z,26.10
2022-12-01T22:03:15.234Z,25.23
2022-12-01T22:06:01.157Z,27.05
2022-12-01T22:11:27.094Z,22.05
2022-12-01T22:14:17.664Z,26.35
2022-12-01T22:16:58.756Z,25.55
2022-12-01T22:19:32.095Z,26.45
2022-12-01T22:22:01.057Z,26.00
2022-12-01T22:24:54.050Z,26.42
2022-12-01T22:27:31.576Z,26.42
2022-12-01T22:30:03.175Z,24.60
2022-12-01T22:32:35.644Z,27.92
2022-12-01T22:35:34.212Z,25.45
2022-12-01T22:38:02.480Z,25.85
2022-12-01T22:40:49.565Z,25.13
2022-12-01T22:43:18.158Z,23.98
2022-12-01T22:45:57.637Z,24.08
2022-12-01T22:48:31.248Z,24.48
2022-12-01T22:51:35.444Z,24.45
2022-12-01T22:54:13.358Z,22.77
2022-12-01T22:56:48.236Z,22.35
2022-12-01T22:59:23.232Z,22.98
2022-12-01T23:01:57.169Z,23.88
2022-12-01T23:04:31.945Z,23.63
2022-12-01T23:07:05.317Z,21.75
2022-12-01T23:09:37.707Z,20.75
2022-12-01T23:12:14.179Z,23.42
2022-12-01T23:14:49.722Z,23.65
2022-12-01T23:17:22.997Z,24.48
2022-12-01T23:19:59.255Z,24.92
2022-12-01T23:22:28.530Z,24.38
2022-12-01T23:24:58.865Z,25.15
2022-12-01T23:27:26.618Z,27.30
2022-12-01T23:29:55.176Z,26.38
2022-12-01T23:32:23.254Z,25.80
2022-12-01T23:35:00.213Z,27.63
2022-12-01T23:37:40.059Z,26.67
2022-12-01T23:40:35.474Z,28.08
2022-12-01T23:43:19.676Z,26.17
2022-12-01T23:45:52.971Z,27.83
2022-12-01T23:49:03.973Z,26.95
2022-12-01T23:51:39.003Z,27.50
2022-12-01T23:54:34.848Z,26.58
2022-12-01T23:57:10.392Z,27.85
2022-12-01T23:59:39.112Z,25.30
